sensor_id;sensor_type;location;lat;lon;timestamp;P1;durP1;ratioP1;P2;durP2;ratioP2
22270;SDS011;11304;53.520;10.104;2023-04-28T00:01:10;11.25;;;8.52;;
22270;SDS011;11304;53.520;10.104;2023-04-28T00:03:36;9.98;;;7.82;;
22270;SDS011;11304;53.520;10.104;2023-04-28T00:06:02;9.45;;;7.80;;
22270;SDS011;11304;53.520;10.104;2023-04-28T00:08:28;13.98;;;8.60;;
22270;SDS011;11304;53.520;10.104;2023-04-28T00:10:54;13.60;;;8.32;;
22270;SDS011;11304;53.520;10.104;2023-04-28T00:13:19;14.55;;;9.82;;
22270;SDS011;11304;53.520;10.104;2023-04-28T00:15:45;15.65;;;10.10;;
22270;SDS011;11304;53.520;10.104;2023-04-28T00:18:11;10.63;;;7.32;;
22270;SDS011;11304;53.520;10.104;2023-04-28T00:20:36;9.43;;;6.82;;
22270;SDS011;11304;53.520;10.104;2023-04-28T00:23:02;10.38;;;6.70;;
22270;SDS011;11304;53.520;10.104;2023-04-28T00:25:28;10.38;;;7.38;;
22270;SDS011;11304;53.520;10.104;2023-04-28T00:27:53;12.05;;;7.32;;
22270;SDS011;11304;53.520;10.104;2023-04-28T00:30:19;12.73;;;7.97;;
22270;SDS011;11304;53.520;10.104;2023-04-28T00:32:45;16.95;;;10.88;;
22270;SDS011;11304;53.520;10.104;2023-04-28T00:35:11;15.57;;;11.07;;
22270;SDS011;11304;53.520;10.104;2023-04-28T00:37:36;13.45;;;10.52;;
22270;SDS011;11304;53.520;10.104;2023-04-28T00:40:02;12.93;;;10.27;;
22270;SDS011;11304;53.520;10.104;2023-04-28T00:42:29;16.95;;;11.25;;
22270;SDS011;11304;53.520;10.104;2023-04-28T00:44:55;14.45;;;9.23;;
22270;SDS011;11304;53.520;10.104;2023-04-28T00:47:21;12.15;;;8.30;;
22270;SDS011;11304;53.520;10.104;2023-04-28T00:49:47;15.07;;;10.32;;
22270;SDS011;11304;53.520;10.104;2023-04-28T00:52:14;11.68;;;8.82;;
22270;SDS011;11304;53.520;10.104;2023-04-28T00:54:40;13.85;;;10.27;;
22270;SDS011;11304;53.520;10.104;2023-04-28T00:57:08;12.88;;;10.27;;
22270;SDS011;11304;53.520;10.104;2023-04-28T00:59:35;14.57;;;10.63;;
22270;SDS011;11304;53.520;10.104;2023-04-28T01:02:00;17.00;;;12.00;;
22270;SDS011;11304;53.520;10.104;2023-04-28T01:04:27;18.38;;;11.50;;
22270;SDS011;11304;53.520;10.104;2023-04-28T01:06:54;14.57;;;9.90;;
22270;SDS011;11304;53.520;10.104;2023-04-28T01:09:20;13.73;;;9.40;;
22270;SDS011;11304;53.520;10.104;2023-04-28T01:11:46;15.43;;;10.00;;
22270;SDS011;11304;53.520;10.104;2023-04-28T01:14:12;18.92;;;12.55;;
22270;SDS011;11304;53.520;10.104;2023-04-28T01:16:38;17.55;;;11.95;;
22270;SDS011;11304;53.520;10.104;2023-04-28T01:19:11;14.82;;;10.07;;
22270;SDS011;11304;53.520;10.104;2023-04-28T01:21:46;12.48;;;9.10;;
22270;SDS011;11304;53.520;10.104;2023-04-28T01:24:12;18.55;;;10.90;;
22270;SDS011;11304;53.520;10.104;2023-04-28T01:26:38;12.68;;;9.35;;
22270;SDS011;11304;53.520;10.104;2023-04-28T01:29:03;13.40;;;9.68;;
22270;SDS011;11304;53.520;10.104;2023-04-28T01:31:29;14.48;;;9.68;;
22270;SDS011;11304;53.520;10.104;2023-04-28T01:33:55;15.80;;;11.02;;
22270;SDS011;11304;53.520;10.104;2023-04-28T01:36:21;13.18;;;9.27;;
22270;SDS011;11304;53.520;10.104;2023-04-28T01:38:48;13.05;;;8.98;;
22270;SDS011;11304;53.520;10.104;2023-04-28T01:41:14;13.25;;;7.35;;
22270;SDS011;11304;53.520;10.104;2023-04-28T01:43:40;15.00;;;9.70;;
22270;SDS011;11304;53.520;10.104;2023-04-28T01:46:07;11.18;;;8.70;;
22270;SDS011;11304;53.520;10.104;2023-04-28T01:48:34;14.35;;;9.95;;
22270;SDS011;11304;53.520;10.104;2023-04-28T01:50:59;17.50;;;11.88;;
22270;SDS011;11304;53.520;10.104;2023-04-28T01:53:25;22.52;;;13.23;;
22270;SDS011;11304;53.520;10.104;2023-04-28T01:55:52;17.63;;;12.07;;
22270;SDS011;11304;53.520;10.104;2023-04-28T01:58:18;19.42;;;13.00;;
22270;SDS011;11304;53.520;10.104;2023-04-28T02:00:44;19.15;;;12.68;;
22270;SDS011;11304;53.520;10.104;2023-04-28T02:03:10;21.75;;;12.15;;
22270;SDS011;11304;53.520;10.104;2023-04-28T02:05:36;18.55;;;11.98;;
22270;SDS011;11304;53.520;10.104;2023-04-28T02:08:02;17.30;;;12.10;;
22270;SDS011;11304;53.520;10.104;2023-04-28T02:10:27;19.02;;;10.23;;
22270;SDS011;11304;53.520;10.104;2023-04-28T02:12:53;20.23;;;11.60;;
22270;SDS011;11304;53.520;10.104;2023-04-28T02:15:19;18.63;;;10.95;;
22270;SDS011;11304;53.520;10.104;2023-04-28T02:17:45;15.85;;;9.80;;
22270;SDS011;11304;53.520;10.104;2023-04-28T02:20:11;13.98;;;9.93;;
22270;SDS011;11304;53.520;10.104;2023-04-28T02:22:38;18.27;;;11.52;;
22270;SDS011;11304;53.520;10.104;2023-04-28T02:25:04;17.15;;;10.63;;
22270;SDS011;11304;53.520;10.104;2023-04-28T02:27:30;18.63;;;12.40;;
22270;SDS011;11304;53.520;10.104;2023-04-28T02:29:57;21.10;;;13.45;;
22270;SDS011;11304;53.520;10.104;2023-04-28T02:32:22;23.98;;;14.18;;
22270;SDS011;11304;53.520;10.104;2023-04-28T02:34:51;23.75;;;15.23;;
22270;SDS011;11304;53.520;10.104;2023-04-28T02:37:18;26.90;;;14.40;;
22270;SDS011;11304;53.520;10.104;2023-04-28T02:39:44;22.33;;;14.07;;
22270;SDS011;11304;53.520;10.104;2023-04-28T02:42:10;23.83;;;14.70;;
22270;SDS011;11304;53.520;10.104;2023-04-28T02:44:36;19.88;;;13.23;;
22270;SDS011;11304;53.520;10.104;2023-04-28T02:47:01;20.70;;;12.65;;
22270;SDS011;11304;53.520;10.104;2023-04-28T02:49:27;20.73;;;13.30;;
22270;SDS011;11304;53.520;10.104;2023-04-28T02:51:53;21.77;;;12.68;;
22270;SDS011;11304;53.520;10.104;2023-04-28T02:54:18;18.20;;;11.75;;
22270;SDS011;11304;53.520;10.104;2023-04-28T02:56:54;18.52;;;11.45;;
22270;SDS011;11304;53.520;10.104;2023-04-28T02:59:20;17.77;;;11.75;;
22270;SDS011;11304;53.520;10.104;2023-04-28T03:01:47;16.83;;;11.40;;
22270;SDS011;11304;53.520;10.104;2023-04-28T03:04:13;18.50;;;10.82;;
22270;SDS011;11304;53.520;10.104;2023-04-28T03:06:39;16.77;;;11.45;;
22270;SDS011;11304;53.520;10.104;2023-04-28T03:09:05;16.20;;;11.20;;
22270;SDS011;11304;53.520;10.104;2023-04-28T03:11:31;15.20;;;10.82;;
22270;SDS011;11304;53.520;10.104;2023-04-28T03:13:57;15.90;;;10.85;;
22270;SDS011;11304;53.520;10.104;2023-04-28T03:16:22;14.60;;;10.18;;
22270;SDS011;11304;53.520;10.104;2023-04-28T03:18:48;14.25;;;9.27;;
22270;SDS011;11304;53.520;10.104;2023-04-28T03:21:14;15.52;;;9.80;;
22270;SDS011;11304;53.520;10.104;2023-04-28T03:23:40;14.45;;;9.50;;
22270;SDS011;11304;53.520;10.104;2023-04-28T03:26:06;21.95;;;10.07;;
22270;SDS011;11304;53.520;10.104;2023-04-28T03:28:32;13.90;;;9.32;;
22270;SDS011;11304;53.520;10.104;2023-04-28T03:30:58;30.48;;;10.82;;
22270;SDS011;11304;53.520;10.104;2023-04-28T03:33:23;23.33;;;10.25;;
22270;SDS011;11304;53.520;10.104;2023-04-28T03:35:49;34.10;;;10.30;;
22270;SDS011;11304;53.520;10.104;2023-04-28T03:38:15;18.20;;;10.23;;
22270;SDS011;11304;53.520;10.104;2023-04-28T03:40:41;18.85;;;9.73;;
22270;SDS011;11304;53.520;10.104;2023-04-28T03:43:06;14.10;;;9.30;;
22270;SDS011;11304;53.520;10.104;2023-04-28T03:45:32;12.25;;;8.85;;
22270;SDS011;11304;53.520;10.104;2023-04-28T03:47:58;12.77;;;8.73;;
22270;SDS011;11304;53.520;10.104;2023-04-28T03:50:24;21.08;;;9.60;;
22270;SDS011;11304;53.520;10.104;2023-04-28T03:52:49;20.08;;;8.80;;
22270;SDS011;11304;53.520;10.104;2023-04-28T03:55:15;29.25;;;9.93;;
22270;SDS011;11304;53.520;10.104;2023-04-28T03:57:41;17.38;;;8.38;;
22270;SDS011;11304;53.520;10.104;2023-04-28T04:00:07;18.08;;;8.32;;
22270;SDS011;11304;53.520;10.104;2023-04-28T04:02:34;15.07;;;8.82;;
22270;SDS011;11304;53.520;10.104;2023-04-28T04:04:59;15.70;;;8.63;;
22270;SDS011;11304;53.520;10.104;2023-04-28T04:07:25;21.23;;;8.82;;
22270;SDS011;11304;53.520;10.104;2023-04-28T04:09:51;20.13;;;8.75;;
22270;SDS011;11304;53.520;10.104;2023-04-28T04:12:17;19.85;;;8.43;;
22270;SDS011;11304;53.520;10.104;2023-04-28T04:14:42;23.73;;;8.93;;
22270;SDS011;11304;53.520;10.104;2023-04-28T04:17:08;31.33;;;9.75;;
22270;SDS011;11304;53.520;10.104;2023-04-28T04:19:34;19.63;;;9.15;;
22270;SDS011;11304;53.520;10.104;2023-04-28T04:21:59;23.95;;;9.48;;
22270;SDS011;11304;53.520;10.104;2023-04-28T04:24:25;28.05;;;9.15;;
22270;SDS011;11304;53.520;10.104;2023-04-28T04:26:51;22.55;;;8.57;;
22270;SDS011;11304;53.520;10.104;2023-04-28T04:29:16;18.95;;;8.43;;
22270;SDS011;11304;53.520;10.104;2023-04-28T04:31:42;25.52;;;9.38;;
22270;SDS011;11304;53.520;10.104;2023-04-28T04:34:09;15.20;;;7.78;;
22270;SDS011;11304;53.520;10.104;2023-04-28T04:36:36;20.83;;;7.63;;
22270;SDS011;11304;53.520;10.104;2023-04-28T04:39:01;16.35;;;8.05;;
22270;SDS011;11304;53.520;10.104;2023-04-28T04:41:27;16.02;;;7.55;;
22270;SDS011;11304;53.520;10.104;2023-04-28T04:43:53;33.85;;;7.90;;
22270;SDS011;11304;53.520;10.104;2023-04-28T04:46:19;27.85;;;8.65;;
22270;SDS011;11304;53.520;10.104;2023-04-28T04:48:45;11.43;;;7.07;;
22270;SDS011;11304;53.520;10.104;2023-04-28T04:51:11;18.77;;;7.90;;
22270;SDS011;11304;53.520;10.104;2023-04-28T04:53:37;29.48;;;8.43;;
22270;SDS011;11304;53.520;10.104;2023-04-28T04:56:03;13.60;;;7.07;;
22270;SDS011;11304;53.520;10.104;2023-04-28T04:58:29;12.35;;;6.78;;
22270;SDS011;11304;53.520;10.104;2023-04-28T05:00:55;16.08;;;6.57;;
22270;SDS011;11304;53.520;10.104;2023-04-28T05:03:20;16.20;;;6.75;;
22270;SDS011;11304;53.520;10.104;2023-04-28T05:05:46;15.27;;;7.03;;
22270;SDS011;11304;53.520;10.104;2023-04-28T05:08:12;13.90;;;6.95;;
22270;SDS011;11304;53.520;10.104;2023-04-28T05:10:38;14.90;;;7.47;;
22270;SDS011;11304;53.520;10.104;2023-04-28T05:13:04;25.60;;;8.10;;
22270;SDS011;11304;53.520;10.104;2023-04-28T05:15:31;27.35;;;8.07;;
22270;SDS011;11304;53.520;10.104;2023-04-28T05:17:56;22.60;;;7.32;;
22270;SDS011;11304;53.520;10.104;2023-04-28T05:20:22;17.08;;;6.30;;
22270;SDS011;11304;53.520;10.104;2023-04-28T05:22:48;10.95;;;6.25;;
22270;SDS011;11304;53.520;10.104;2023-04-28T05:25:14;12.38;;;6.20;;
22270;SDS011;11304;53.520;10.104;2023-04-28T05:27:40;20.42;;;7.43;;
22270;SDS011;11304;53.520;10.104;2023-04-28T05:30:06;15.77;;;6.65;;
22270;SDS011;11304;53.520;10.104;2023-04-28T05:32:33;18.08;;;6.70;;
22270;SDS011;11304;53.520;10.104;2023-04-28T05:35:00;28.17;;;6.70;;
22270;SDS011;11304;53.520;10.104;2023-04-28T05:37:26;19.10;;;6.15;;
22270;SDS011;11304;53.520;10.104;2023-04-28T05:39:51;16.40;;;5.95;;
22270;SDS011;11304;53.520;10.104;2023-04-28T05:42:17;38.92;;;7.53;;
22270;SDS011;11304;53.520;10.104;2023-04-28T05:44:44;7.32;;;4.80;;
22270;SDS011;11304;53.520;10.104;2023-04-28T05:47:10;27.30;;;5.72;;
22270;SDS011;11304;53.520;10.104;2023-04-28T05:49:36;13.00;;;5.22;;
22270;SDS011;11304;53.520;10.104;2023-04-28T05:52:02;12.55;;;5.28;;
22270;SDS011;11304;53.520;10.104;2023-04-28T05:54:28;22.73;;;5.85;;
22270;SDS011;11304;53.520;10.104;2023-04-28T05:56:54;15.27;;;5.18;;
22270;SDS011;11304;53.520;10.104;2023-04-28T05:59:20;17.40;;;5.50;;
22270;SDS011;11304;53.520;10.104;2023-04-28T06:01:46;16.02;;;4.88;;
22270;SDS011;11304;53.520;10.104;2023-04-28T06:04:12;23.65;;;5.95;;
22270;SDS011;11304;53.520;10.104;2023-04-28T06:06:38;35.97;;;6.57;;
22270;SDS011;11304;53.520;10.104;2023-04-28T06:09:03;31.00;;;6.18;;
22270;SDS011;11304;53.520;10.104;2023-04-28T06:11:29;7.35;;;3.60;;
22270;SDS011;11304;53.520;10.104;2023-04-28T06:13:55;6.10;;;3.08;;
22270;SDS011;11304;53.520;10.104;2023-04-28T06:16:21;11.45;;;3.40;;
22270;SDS011;11304;53.520;10.104;2023-04-28T06:18:47;20.90;;;3.50;;
22270;SDS011;11304;53.520;10.104;2023-04-28T06:21:14;5.97;;;3.05;;
22270;SDS011;11304;53.520;10.104;2023-04-28T06:23:41;8.90;;;2.83;;
22270;SDS011;11304;53.520;10.104;2023-04-28T06:26:07;5.20;;;2.63;;
22270;SDS011;11304;53.520;10.104;2023-04-28T06:28:33;12.05;;;3.25;;
22270;SDS011;11304;53.520;10.104;2023-04-28T06:30:59;11.10;;;3.35;;
22270;SDS011;11304;53.520;10.104;2023-04-28T06:33:25;9.45;;;3.17;;
22270;SDS011;11304;53.520;10.104;2023-04-28T06:35:51;8.60;;;2.78;;
22270;SDS011;11304;53.520;10.104;2023-04-28T06:38:17;10.20;;;2.70;;
22270;SDS011;11304;53.520;10.104;2023-04-28T06:40:43;8.27;;;2.95;;
22270;SDS011;11304;53.520;10.104;2023-04-28T06:43:10;7.28;;;2.72;;
22270;SDS011;11304;53.520;10.104;2023-04-28T06:45:36;47.88;;;5.53;;
22270;SDS011;11304;53.520;10.104;2023-04-28T06:48:03;11.63;;;3.10;;
22270;SDS011;11304;53.520;10.104;2023-04-28T06:50:30;7.82;;;3.30;;
22270;SDS011;11304;53.520;10.104;2023-04-28T06:52:55;10.20;;;2.97;;
22270;SDS011;11304;53.520;10.104;2023-04-28T06:55:22;7.28;;;2.45;;
22270;SDS011;11304;53.520;10.104;2023-04-28T06:57:48;7.70;;;3.00;;
22270;SDS011;11304;53.520;10.104;2023-04-28T07:00:14;7.22;;;3.15;;
22270;SDS011;11304;53.520;10.104;2023-04-28T07:02:40;6.53;;;2.70;;
22270;SDS011;11304;53.520;10.104;2023-04-28T07:05:06;11.20;;;3.15;;
22270;SDS011;11304;53.520;10.104;2023-04-28T07:07:32;8.48;;;3.00;;
22270;SDS011;11304;53.520;10.104;2023-04-28T07:09:57;15.57;;;3.25;;
22270;SDS011;11304;53.520;10.104;2023-04-28T07:12:24;10.32;;;2.75;;
22270;SDS011;11304;53.520;10.104;2023-04-28T07:14:50;6.65;;;2.70;;
22270;SDS011;11304;53.520;10.104;2023-04-28T07:17:15;8.98;;;3.03;;
22270;SDS011;11304;53.520;10.104;2023-04-28T07:19:41;8.23;;;3.25;;
22270;SDS011;11304;53.520;10.104;2023-04-28T07:22:07;7.30;;;3.00;;
22270;SDS011;11304;53.520;10.104;2023-04-28T07:24:32;6.30;;;3.00;;
22270;SDS011;11304;53.520;10.104;2023-04-28T07:26:58;5.15;;;3.05;;
22270;SDS011;11304;53.520;10.104;2023-04-28T07:29:25;5.90;;;2.97;;
22270;SDS011;11304;53.520;10.104;2023-04-28T07:31:53;4.85;;;2.78;;
22270;SDS011;11304;53.520;10.104;2023-04-28T07:34:18;6.88;;;2.92;;
22270;SDS011;11304;53.520;10.104;2023-04-28T07:36:44;9.63;;;3.33;;
22270;SDS011;11304;53.520;10.104;2023-04-28T07:39:11;7.28;;;2.88;;
22270;SDS011;11304;53.520;10.104;2023-04-28T07:41:36;5.28;;;2.70;;
22270;SDS011;11304;53.520;10.104;2023-04-28T07:44:03;4.38;;;2.63;;
22270;SDS011;11304;53.520;10.104;2023-04-28T07:48:57;10.40;;;2.53;;
22270;SDS011;11304;53.520;10.104;2023-04-28T07:51:23;7.07;;;2.60;;
22270;SDS011;11304;53.520;10.104;2023-04-28T07:53:49;9.45;;;2.88;;
22270;SDS011;11304;53.520;10.104;2023-04-28T07:56:15;6.22;;;2.78;;
22270;SDS011;11304;53.520;10.104;2023-04-28T07:58:41;9.05;;;3.30;;
22270;SDS011;11304;53.520;10.104;2023-04-28T08:01:06;6.68;;;2.97;;
22270;SDS011;11304;53.520;10.104;2023-04-28T08:03:32;6.13;;;3.10;;
22270;SDS011;11304;53.520;10.104;2023-04-28T08:05:58;8.75;;;3.08;;
22270;SDS011;11304;53.520;10.104;2023-04-28T08:08:25;7.30;;;2.83;;
22270;SDS011;11304;53.520;10.104;2023-04-28T08:10:50;7.97;;;3.20;;
22270;SDS011;11304;53.520;10.104;2023-04-28T08:13:17;6.68;;;2.58;;
22270;SDS011;11304;53.520;10.104;2023-04-28T08:15:43;4.97;;;2.70;;
22270;SDS011;11304;53.520;10.104;2023-04-28T08:18:09;11.27;;;3.22;;
22270;SDS011;11304;53.520;10.104;2023-04-28T08:20:34;6.97;;;2.65;;
22270;SDS011;11304;53.520;10.104;2023-04-28T08:23:00;10.18;;;3.03;;
22270;SDS011;11304;53.520;10.104;2023-04-28T08:25:26;6.38;;;2.85;;
22270;SDS011;11304;53.520;10.104;2023-04-28T08:27:51;15.77;;;3.20;;
22270;SDS011;11304;53.520;10.104;2023-04-28T08:30:19;9.73;;;3.08;;
22270;SDS011;11304;53.520;10.104;2023-04-28T08:32:45;7.60;;;3.20;;
22270;SDS011;11304;53.520;10.104;2023-04-28T08:35:11;5.10;;;2.97;;
22270;SDS011;11304;53.520;10.104;2023-04-28T08:37:39;13.03;;;3.33;;
22270;SDS011;11304;53.520;10.104;2023-04-28T08:40:05;5.68;;;3.03;;
22270;SDS011;11304;53.520;10.104;2023-04-28T08:42:34;8.25;;;2.78;;
22270;SDS011;11304;53.520;10.104;2023-04-28T08:45:01;6.32;;;2.85;;
22270;SDS011;11304;53.520;10.104;2023-04-28T08:47:36;5.57;;;2.73;;
22270;SDS011;11304;53.520;10.104;2023-04-28T08:50:04;6.88;;;3.00;;
22270;SDS011;11304;53.520;10.104;2023-04-28T08:52:31;5.15;;;2.83;;
22270;SDS011;11304;53.520;10.104;2023-04-28T08:55:01;8.43;;;2.85;;
22270;SDS011;11304;53.520;10.104;2023-04-28T08:57:43;4.53;;;2.45;;
22270;SDS011;11304;53.520;10.104;2023-04-28T09:00:12;8.23;;;3.38;;
22270;SDS011;11304;53.520;10.104;2023-04-28T09:02:39;10.45;;;3.00;;
22270;SDS011;11304;53.520;10.104;2023-04-28T09:05:11;5.35;;;2.80;;
22270;SDS011;11304;53.520;10.104;2023-04-28T09:07:38;6.60;;;3.70;;
22270;SDS011;11304;53.520;10.104;2023-04-28T09:10:14;8.48;;;3.30;;
22270;SDS011;11304;53.520;10.104;2023-04-28T09:12:43;11.48;;;3.45;;
22270;SDS011;11304;53.520;10.104;2023-04-28T09:15:09;14.48;;;4.22;;
22270;SDS011;11304;53.520;10.104;2023-04-28T09:17:47;5.90;;;3.40;;
22270;SDS011;11304;53.520;10.104;2023-04-28T09:20:22;9.40;;;3.63;;
22270;SDS011;11304;53.520;10.104;2023-04-28T09:22:50;8.35;;;3.70;;
22270;SDS011;11304;53.520;10.104;2023-04-28T09:25:17;8.57;;;4.03;;
22270;SDS011;11304;53.520;10.104;2023-04-28T09:27:43;9.45;;;3.33;;
22270;SDS011;11304;53.520;10.104;2023-04-28T09:30:09;6.40;;;3.50;;
22270;SDS011;11304;53.520;10.104;2023-04-28T09:32:35;10.90;;;3.75;;
22270;SDS011;11304;53.520;10.104;2023-04-28T09:35:01;8.77;;;3.47;;
22270;SDS011;11304;53.520;10.104;2023-04-28T09:37:29;9.02;;;3.90;;
22270;SDS011;11304;53.520;10.104;2023-04-28T09:39:56;23.63;;;4.78;;
22270;SDS011;11304;53.520;10.104;2023-04-28T09:42:40;5.35;;;3.58;;
22270;SDS011;11304;53.520;10.104;2023-04-28T09:47:38;5.32;;;3.33;;
22270;SDS011;11304;53.520;10.104;2023-04-28T09:50:10;11.27;;;3.75;;
22270;SDS011;11304;53.520;10.104;2023-04-28T09:52:38;14.85;;;4.70;;
22270;SDS011;11304;53.520;10.104;2023-04-28T09:55:06;10.70;;;3.65;;
22270;SDS011;11304;53.520;10.104;2023-04-28T09:57:36;9.52;;;4.07;;
22270;SDS011;11304;53.520;10.104;2023-04-28T10:00:03;5.18;;;3.67;;
22270;SDS011;11304;53.520;10.104;2023-04-28T10:02:33;5.07;;;3.35;;
22270;SDS011;11304;53.520;10.104;2023-04-28T10:05:00;8.43;;;3.78;;
22270;SDS011;11304;53.520;10.104;2023-04-28T10:07:27;6.45;;;3.55;;
22270;SDS011;11304;53.520;10.104;2023-04-28T10:09:54;6.18;;;3.65;;
22270;SDS011;11304;53.520;10.104;2023-04-28T10:12:21;13.73;;;4.13;;
22270;SDS011;11304;53.520;10.104;2023-04-28T10:14:48;20.13;;;4.43;;
22270;SDS011;11304;53.520;10.104;2023-04-28T10:17:18;9.50;;;4.30;;
22270;SDS011;11304;53.520;10.104;2023-04-28T10:19:45;10.57;;;4.13;;
22270;SDS011;11304;53.520;10.104;2023-04-28T10:27:39;6.72;;;3.95;;
22270;SDS011;11304;53.520;10.104;2023-04-28T10:32:40;7.40;;;4.32;;
22270;SDS011;11304;53.520;10.104;2023-04-28T10:35:39;11.80;;;4.57;;
22270;SDS011;11304;53.520;10.104;2023-04-28T10:40:34;10.70;;;4.18;;
22270;SDS011;11304;53.520;10.104;2023-04-28T10:43:01;12.63;;;4.60;;
22270;SDS011;11304;53.520;10.104;2023-04-28T10:48:21;10.13;;;4.20;;
22270;SDS011;11304;53.520;10.104;2023-04-28T10:58:35;14.20;;;4.78;;
22270;SDS011;11304;53.520;10.104;2023-04-28T11:03:48;6.50;;;3.53;;
22270;SDS011;11304;53.520;10.104;2023-04-28T11:06:30;7.10;;;4.03;;
22270;SDS011;11304;53.520;10.104;2023-04-28T11:16:52;14.40;;;5.07;;
22270;SDS011;11304;53.520;10.104;2023-04-28T11:19:26;10.82;;;4.38;;
22270;SDS011;11304;53.520;10.104;2023-04-28T11:21:53;8.77;;;4.43;;
22270;SDS011;11304;53.520;10.104;2023-04-28T11:24:21;8.18;;;3.90;;
22270;SDS011;11304;53.520;10.104;2023-04-28T11:26:51;62.00;;;7.47;;
22270;SDS011;11304;53.520;10.104;2023-04-28T11:29:17;8.68;;;4.55;;
22270;SDS011;11304;53.520;10.104;2023-04-28T11:31:55;12.90;;;5.20;;
22270;SDS011;11304;53.520;10.104;2023-04-28T11:34:21;13.38;;;4.82;;
22270;SDS011;11304;53.520;10.104;2023-04-28T11:36:48;10.02;;;4.63;;
22270;SDS011;11304;53.520;10.104;2023-04-28T11:39:14;12.98;;;4.55;;
22270;SDS011;11304;53.520;10.104;2023-04-28T11:41:41;54.45;;;7.22;;
22270;SDS011;11304;53.520;10.104;2023-04-28T11:44:18;16.30;;;5.13;;
22270;SDS011;11304;53.520;10.104;2023-04-28T11:46:45;8.93;;;4.00;;
22270;SDS011;11304;53.520;10.104;2023-04-28T11:49:24;8.85;;;4.25;;
22270;SDS011;11304;53.520;10.104;2023-04-28T11:51:53;11.40;;;5.30;;
22270;SDS011;11304;53.520;10.104;2023-04-28T11:54:20;60.75;;;7.80;;
22270;SDS011;11304;53.520;10.104;2023-04-28T11:56:50;8.27;;;4.38;;
22270;SDS011;11304;53.520;10.104;2023-04-28T11:59:17;9.27;;;4.95;;
22270;SDS011;11304;53.520;10.104;2023-04-28T12:09:37;7.22;;;4.78;;
22270;SDS011;11304;53.520;10.104;2023-04-28T12:12:04;10.27;;;4.97;;
22270;SDS011;11304;53.520;10.104;2023-04-28T12:14:31;10.55;;;4.75;;
22270;SDS011;11304;53.520;10.104;2023-04-28T12:16:59;8.80;;;5.00;;
22270;SDS011;11304;53.520;10.104;2023-04-28T12:19:25;10.68;;;4.95;;
22270;SDS011;11304;53.520;10.104;2023-04-28T12:21:58;7.90;;;4.47;;
22270;SDS011;11304;53.520;10.104;2023-04-28T12:24:28;8.73;;;4.90;;
22270;SDS011;11304;53.520;10.104;2023-04-28T12:27:03;10.23;;;4.88;;
22270;SDS011;11304;53.520;10.104;2023-04-28T12:29:42;9.90;;;4.32;;
22270;SDS011;11304;53.520;10.104;2023-04-28T12:32:10;14.10;;;4.43;;
22270;SDS011;11304;53.520;10.104;2023-04-28T12:34:36;10.02;;;4.63;;
22270;SDS011;11304;53.520;10.104;2023-04-28T12:37:04;10.85;;;5.25;;
22270;SDS011;11304;53.520;10.104;2023-04-28T12:39:30;12.60;;;4.65;;
22270;SDS011;11304;53.520;10.104;2023-04-28T12:41:57;8.70;;;5.07;;
22270;SDS011;11304;53.520;10.104;2023-04-28T12:44:32;9.50;;;4.57;;
22270;SDS011;11304;53.520;10.104;2023-04-28T12:47:00;14.82;;;5.28;;
22270;SDS011;11304;53.520;10.104;2023-04-28T12:49:27;9.88;;;4.97;;
22270;SDS011;11304;53.520;10.104;2023-04-28T12:51:52;7.78;;;4.78;;
22270;SDS011;11304;53.520;10.104;2023-04-28T12:54:18;9.95;;;5.22;;
22270;SDS011;11304;53.520;10.104;2023-04-28T12:56:44;15.48;;;5.05;;
22270;SDS011;11304;53.520;10.104;2023-04-28T12:59:10;13.40;;;5.00;;
22270;SDS011;11304;53.520;10.104;2023-04-28T13:01:35;13.57;;;4.63;;
22270;SDS011;11304;53.520;10.104;2023-04-28T13:04:01;13.95;;;5.07;;
22270;SDS011;11304;53.520;10.104;2023-04-28T13:06:27;14.07;;;5.18;;
22270;SDS011;11304;53.520;10.104;2023-04-28T13:08:53;8.68;;;5.30;;
22270;SDS011;11304;53.520;10.104;2023-04-28T13:11:19;15.68;;;4.60;;
22270;SDS011;11304;53.520;10.104;2023-04-28T13:13:45;9.10;;;4.95;;
22270;SDS011;11304;53.520;10.104;2023-04-28T13:16:11;9.50;;;5.43;;
22270;SDS011;11304;53.520;10.104;2023-04-28T13:18:38;9.10;;;4.88;;
22270;SDS011;11304;53.520;10.104;2023-04-28T13:21:04;11.18;;;4.88;;
22270;SDS011;11304;53.520;10.104;2023-04-28T13:23:29;21.95;;;5.68;;
22270;SDS011;11304;53.520;10.104;2023-04-28T13:25:55;11.65;;;5.28;;
22270;SDS011;11304;53.520;10.104;2023-04-28T13:28:21;24.00;;;5.80;;
22270;SDS011;11304;53.520;10.104;2023-04-28T13:30:47;13.80;;;5.43;;
22270;SDS011;11304;53.520;10.104;2023-04-28T13:33:12;7.70;;;5.20;;
22270;SDS011;11304;53.520;10.104;2023-04-28T13:35:38;13.35;;;5.68;;
22270;SDS011;11304;53.520;10.104;2023-04-28T13:38:04;15.73;;;5.05;;
22270;SDS011;11304;53.520;10.104;2023-04-28T13:40:30;15.98;;;5.30;;
22270;SDS011;11304;53.520;10.104;2023-04-28T13:42:57;19.58;;;5.80;;
22270;SDS011;11304;53.520;10.104;2023-04-28T13:45:23;14.77;;;5.70;;
22270;SDS011;11304;53.520;10.104;2023-04-28T13:47:50;12.85;;;5.55;;
22270;SDS011;11304;53.520;10.104;2023-04-28T13:50:18;8.93;;;5.57;;
22270;SDS011;11304;53.520;10.104;2023-04-28T13:52:44;9.10;;;5.93;;
22270;SDS011;11304;53.520;10.104;2023-04-28T13:55:09;10.85;;;6.15;;
22270;SDS011;11304;53.520;10.104;2023-04-28T13:57:35;10.43;;;6.00;;
22270;SDS011;11304;53.520;10.104;2023-04-28T14:00:01;10.93;;;5.50;;
22270;SDS011;11304;53.520;10.104;2023-04-28T14:02:28;10.88;;;5.57;;
22270;SDS011;11304;53.520;10.104;2023-04-28T14:04:54;9.27;;;5.90;;
22270;SDS011;11304;53.520;10.104;2023-04-28T14:07:20;12.15;;;6.10;;
22270;SDS011;11304;53.520;10.104;2023-04-28T14:09:46;11.85;;;6.25;;
22270;SDS011;11304;53.520;10.104;2023-04-28T14:12:13;13.25;;;6.25;;
22270;SDS011;11304;53.520;10.104;2023-04-28T14:14:40;11.70;;;6.47;;
22270;SDS011;11304;53.520;10.104;2023-04-28T14:17:06;15.70;;;6.88;;
22270;SDS011;11304;53.520;10.104;2023-04-28T14:19:32;11.63;;;6.10;;
22270;SDS011;11304;53.520;10.104;2023-04-28T14:21:58;10.98;;;6.13;;
22270;SDS011;11304;53.520;10.104;2023-04-28T14:24:25;12.48;;;6.47;;
22270;SDS011;11304;53.520;10.104;2023-04-28T14:26:51;13.20;;;5.97;;
22270;SDS011;11304;53.520;10.104;2023-04-28T14:29:17;13.68;;;6.32;;
22270;SDS011;11304;53.520;10.104;2023-04-28T14:31:43;12.68;;;5.95;;
22270;SDS011;11304;53.520;10.104;2023-04-28T14:34:08;11.15;;;6.10;;
22270;SDS011;11304;53.520;10.104;2023-04-28T14:36:34;14.90;;;6.38;;
22270;SDS011;11304;53.520;10.104;2023-04-28T14:39:02;8.80;;;5.43;;
22270;SDS011;11304;53.520;10.104;2023-04-28T14:41:28;13.43;;;6.13;;
22270;SDS011;11304;53.520;10.104;2023-04-28T14:43:53;11.07;;;6.57;;
22270;SDS011;11304;53.520;10.104;2023-04-28T14:46:19;10.77;;;6.18;;
22270;SDS011;11304;53.520;10.104;2023-04-28T14:48:50;11.13;;;6.47;;
22270;SDS011;11304;53.520;10.104;2023-04-28T14:51:17;15.20;;;6.47;;
22270;SDS011;11304;53.520;10.104;2023-04-28T14:53:43;11.20;;;7.20;;
22270;SDS011;11304;53.520;10.104;2023-04-28T14:56:08;15.07;;;6.95;;
22270;SDS011;11304;53.520;10.104;2023-04-28T14:58:34;8.70;;;6.07;;
22270;SDS011;11304;53.520;10.104;2023-04-28T15:01:00;13.10;;;6.70;;
22270;SDS011;11304;53.520;10.104;2023-04-28T15:03:27;15.48;;;6.93;;
22270;SDS011;11304;53.520;10.104;2023-04-28T15:05:53;14.80;;;6.22;;